sensor_id;sensor_type;location;lat;lon;timestamp;pressure;altitude;pressure_sealevel;temperature;humidity
51237;BME280;37312;47.550;18.818;2022-07-23T00:00:34;99053.69;;;22.52;60.32
51237;BME280;37312;47.550;18.818;2022-07-23T00:03:00;99050.63;;;22.54;57.88
51237;BME280;37312;47.550;18.818;2022-07-23T00:05:26;99053.50;;;22.48;60.27
51237;BME280;37312;47.550;18.818;2022-07-23T00:07:52;99052.66;;;22.39;61.14
51237;BME280;37312;47.550;18.818;2022-07-23T00:10:18;99055.03;;;22.32;60.70
51237;BME280;37312;47.550;18.818;2022-07-23T00:12:44;99045.31;;;22.26;63.33
51237;BME280;37312;47.550;18.818;2022-07-23T00:15:10;99048.16;;;22.21;62.30
51237;BME280;37312;47.550;18.818;2022-07-23T00:17:36;99041.66;;;22.17;62.84
51237;BME280;37312;47.550;18.818;2022-07-23T00:20:03;99047.16;;;22.17;62.41
51237;BME280;37312;47.550;18.818;2022-07-23T00:22:29;99040.03;;;22.16;63.31
51237;BME280;37312;47.550;18.818;2022-07-23T00:24:56;99049.25;;;22.20;59.89
51237;BME280;37312;47.550;18.818;2022-07-23T00:27:22;99051.78;;;22.30;59.92
51237;BME280;37312;47.550;18.818;2022-07-23T00:29:48;99053.03;;;22.24;61.41
51237;BME280;37312;47.550;18.818;2022-07-23T00:32:15;99061.56;;;22.22;61.13
51237;BME280;37312;47.550;18.818;2022-07-23T00:34:41;99048.75;;;22.18;60.30
51237;BME280;37312;47.550;18.818;2022-07-23T00:37:07;99057.53;;;22.06;63.91
51237;BME280;37312;47.550;18.818;2022-07-23T00:39:33;99050.97;;;21.93;67.64
51237;BME280;37312;47.550;18.818;2022-07-23T00:41:59;99050.09;;;21.84;67.61
51237;BME280;37312;47.550;18.818;2022-07-23T00:44:27;99059.69;;;21.73;67.94
51237;BME280;37312;47.550;18.818;2022-07-23T00:46:57;99055.44;;;21.67;67.72
51237;BME280;37312;47.550;18.818;2022-07-23T00:49:29;99050.56;;;21.63;64.21
51237;BME280;37312;47.550;18.818;2022-07-23T00:51:56;99048.97;;;21.62;68.93
51237;BME280;37312;47.550;18.818;2022-07-23T00:54:24;99047.81;;;21.63;64.47
51237;BME280;37312;47.550;18.818;2022-07-23T00:56:51;99047.66;;;21.60;64.06
51237;BME280;37312;47.550;18.818;2022-07-23T00:59:17;99041.34;;;21.59;64.00
51237;BME280;37312;47.550;18.818;2022-07-23T01:01:43;99049.75;;;21.63;63.62
51237;BME280;37312;47.550;18.818;2022-07-23T01:04:10;99041.84;;;21.61;62.97
51237;BME280;37312;47.550;18.818;2022-07-23T01:06:37;99038.28;;;21.61;63.28
51237;BME280;37312;47.550;18.818;2022-07-23T01:09:07;99044.41;;;21.58;63.36
51237;BME280;37312;47.550;18.818;2022-07-23T01:11:34;99035.47;;;21.52;62.20
51237;BME280;37312;47.550;18.818;2022-07-23T01:14:09;99036.22;;;21.44;62.06
51237;BME280;37312;47.550;18.818;2022-07-23T01:16:36;99037.81;;;21.45;63.10
51237;BME280;37312;47.550;18.818;2022-07-23T01:19:02;99033.25;;;21.40;65.53
51237;BME280;37312;47.550;18.818;2022-07-23T01:21:30;99027.25;;;21.38;64.62
51237;BME280;37312;47.550;18.818;2022-07-23T01:23:56;99026.44;;;21.38;65.65
51237;BME280;37312;47.550;18.818;2022-07-23T01:26:22;99026.94;;;21.40;64.62
51237;BME280;37312;47.550;18.818;2022-07-23T01:28:48;99028.38;;;21.37;63.29
51237;BME280;37312;47.550;18.818;2022-07-23T01:31:14;99023.81;;;21.33;62.58
51237;BME280;37312;47.550;18.818;2022-07-23T01:33:40;99029.69;;;21.40;62.55
51237;BME280;37312;47.550;18.818;2022-07-23T01:36:06;99025.25;;;21.30;64.81
51237;BME280;37312;47.550;18.818;2022-07-23T01:38:33;99024.41;;;21.30;64.41
51237;BME280;37312;47.550;18.818;2022-07-23T01:40:58;99039.41;;;21.32;63.60
51237;BME280;37312;47.550;18.818;2022-07-23T01:43:24;99039.41;;;21.32;62.23
51237;BME280;37312;47.550;18.818;2022-07-23T01:45:50;99029.69;;;21.40;61.90
51237;BME280;37312;47.550;18.818;2022-07-23T01:48:16;99035.16;;;21.40;62.04
51237;BME280;37312;47.550;18.818;2022-07-23T01:50:42;99025.72;;;21.32;64.75
51237;BME280;37312;47.550;18.818;2022-07-23T01:53:08;99026.69;;;21.41;62.68
51237;BME280;37312;47.550;18.818;2022-07-23T01:55:34;99022.56;;;21.39;65.09
51237;BME280;37312;47.550;18.818;2022-07-23T01:58:00;99025.84;;;21.13;66.71
51237;BME280;37312;47.550;18.818;2022-07-23T02:00:27;99030.44;;;21.04;65.92
51237;BME280;37312;47.550;18.818;2022-07-23T02:02:52;99030.81;;;21.11;66.10
51237;BME280;37312;47.550;18.818;2022-07-23T02:05:19;99025.87;;;20.99;67.84
51237;BME280;37312;47.550;18.818;2022-07-23T02:07:45;99030.72;;;21.02;65.96
51237;BME280;37312;47.550;18.818;2022-07-23T02:10:11;99033.28;;;20.99;68.55
51237;BME280;37312;47.550;18.818;2022-07-23T02:12:37;99025.34;;;20.97;69.71
51237;BME280;37312;47.550;18.818;2022-07-23T02:15:03;99017.75;;;21.08;65.92
51237;BME280;37312;47.550;18.818;2022-07-23T02:17:29;99023.81;;;21.05;64.72
51237;BME280;37312;47.550;18.818;2022-07-23T02:19:55;99024.53;;;21.11;65.81
51237;BME280;37312;47.550;18.818;2022-07-23T02:22:21;99038.25;;;21.11;66.10
51237;BME280;37312;47.550;18.818;2022-07-23T02:24:47;99036.81;;;21.13;63.08
51237;BME280;37312;47.550;18.818;2022-07-23T02:27:13;99031.75;;;21.07;64.51
51237;BME280;37312;47.550;18.818;2022-07-23T02:29:39;99039.16;;;21.20;62.89
51237;BME280;37312;47.550;18.818;2022-07-23T02:32:05;99039.44;;;21.18;63.51
51237;BME280;37312;47.550;18.818;2022-07-23T02:34:31;99041.28;;;21.09;64.19
51237;BME280;37312;47.550;18.818;2022-07-23T02:36:57;99037.50;;;21.05;65.49
51237;BME280;37312;47.550;18.818;2022-07-23T02:39:23;99048.19;;;20.93;66.82
51237;BME280;37312;47.550;18.818;2022-07-23T02:41:49;99042.47;;;20.89;66.29
51237;BME280;37312;47.550;18.818;2022-07-23T02:44:15;99039.84;;;20.84;66.97
51237;BME280;37312;47.550;18.818;2022-07-23T02:46:41;99046.75;;;20.81;67.42
51237;BME280;37312;47.550;18.818;2022-07-23T02:49:06;99053.81;;;20.69;68.64
51237;BME280;37312;47.550;18.818;2022-07-23T02:51:33;99051.78;;;20.60;69.26
51237;BME280;37312;47.550;18.818;2022-07-23T02:53:59;99057.31;;;20.55;71.38
51237;BME280;37312;47.550;18.818;2022-07-23T02:56:24;99047.87;;;20.48;70.86
51237;BME280;37312;47.550;18.818;2022-07-23T02:58:51;99045.12;;;20.48;71.00
51237;BME280;37312;47.550;18.818;2022-07-23T03:01:17;99050.84;;;20.51;69.55
51237;BME280;37312;47.550;18.818;2022-07-23T03:03:43;99043.06;;;20.58;69.19
51237;BME280;37312;47.550;18.818;2022-07-23T03:06:09;99042.56;;;20.56;68.34
51237;BME280;37312;47.550;18.818;2022-07-23T03:08:34;99043.59;;;20.60;68.49
51237;BME280;37312;47.550;18.818;2022-07-23T03:11:00;99042.16;;;20.63;68.40
51237;BME280;37312;47.550;18.818;2022-07-23T03:13:27;99036.69;;;20.63;68.67
51237;BME280;37312;47.550;18.818;2022-07-23T03:15:53;99040.53;;;20.62;68.33
51237;BME280;37312;47.550;18.818;2022-07-23T03:18:19;99045.00;;;20.58;69.40
51237;BME280;37312;47.550;18.818;2022-07-23T03:20:45;99042.81;;;20.55;69.01
51237;BME280;37312;47.550;18.818;2022-07-23T03:23:11;99043.44;;;20.52;68.64
51237;BME280;37312;47.550;18.818;2022-07-23T03:25:37;99040.47;;;20.48;72.37
51237;BME280;37312;47.550;18.818;2022-07-23T03:28:03;99034.72;;;20.50;70.95
51237;BME280;37312;47.550;18.818;2022-07-23T03:30:29;99037.59;;;20.58;70.91
51237;BME280;37312;47.550;18.818;2022-07-23T03:32:55;99024.22;;;20.57;71.03
51237;BME280;37312;47.550;18.818;2022-07-23T03:35:21;99029.91;;;20.60;70.69
51237;BME280;37312;47.550;18.818;2022-07-23T03:37:47;99034.78;;;20.77;69.91
51237;BME280;37312;47.550;18.818;2022-07-23T03:40:13;99032.44;;;20.85;70.94
51237;BME280;37312;47.550;18.818;2022-07-23T03:42:39;99036.72;;;20.91;70.84
51237;BME280;37312;47.550;18.818;2022-07-23T03:45:07;99039.44;;;21.04;70.59
51237;BME280;37312;47.550;18.818;2022-07-23T03:47:33;99039.84;;;21.12;70.63
51237;BME280;37312;47.550;18.818;2022-07-23T03:49:59;99037.53;;;21.19;70.74
51237;BME280;37312;47.550;18.818;2022-07-23T03:52:25;99041.47;;;21.27;69.90
51237;BME280;37312;47.550;18.818;2022-07-23T03:54:51;99030.00;;;21.38;70.38
51237;BME280;37312;47.550;18.818;2022-07-23T03:57:17;99033.53;;;21.39;70.76
51237;BME280;37312;47.550;18.818;2022-07-23T03:59:43;99034.91;;;21.41;70.21
51237;BME280;37312;47.550;18.818;2022-07-23T04:02:09;99040.56;;;21.31;71.39
51237;BME280;37312;47.550;18.818;2022-07-23T04:04:35;99036.00;;;21.40;71.30
51237;BME280;37312;47.550;18.818;2022-07-23T04:07:01;99045.72;;;21.33;73.49
51237;BME280;37312;47.550;18.818;2022-07-23T04:09:27;99050.88;;;21.34;72.98
51237;BME280;37312;47.550;18.818;2022-07-23T04:11:53;99047.56;;;21.37;72.96
51237;BME280;37312;47.550;18.818;2022-07-23T04:14:19;99044.03;;;21.51;73.00
51237;BME280;37312;47.550;18.818;2022-07-23T04:16:45;99047.44;;;21.56;71.05
51237;BME280;37312;47.550;18.818;2022-07-23T04:19:11;99044.06;;;21.59;71.23
51237;BME280;37312;47.550;18.818;2022-07-23T04:21:37;99040.63;;;21.68;71.82
51237;BME280;37312;47.550;18.818;2022-07-23T04:24:03;99048.91;;;21.76;71.77
51237;BME280;37312;47.550;18.818;2022-07-23T04:26:29;99048.28;;;21.79;72.35
51237;BME280;37312;47.550;18.818;2022-07-23T04:28:55;99046.75;;;21.87;70.36
51237;BME280;37312;47.550;18.818;2022-07-23T04:31:21;99046.19;;;21.99;70.52
51237;BME280;37312;47.550;18.818;2022-07-23T04:33:47;99056.91;;;22.09;71.98
51237;BME280;37312;47.550;18.818;2022-07-23T04:36:13;99055.97;;;22.14;72.44
51237;BME280;37312;47.550;18.818;2022-07-23T04:38:39;99055.28;;;22.22;72.66
51237;BME280;37312;47.550;18.818;2022-07-23T04:41:05;99051.50;;;22.40;74.59
51237;BME280;37312;47.550;18.818;2022-07-23T04:43:31;99060.50;;;22.55;73.77
51237;BME280;37312;47.550;18.818;2022-07-23T04:45:57;99058.97;;;22.71;72.58
51237;BME280;37312;47.550;18.818;2022-07-23T04:48:23;99059.00;;;22.80;73.97
51237;BME280;37312;47.550;18.818;2022-07-23T04:50:49;99055.66;;;22.92;73.60
51237;BME280;37312;47.550;18.818;2022-07-23T04:53:15;99055.94;;;23.13;75.24
51237;BME280;37312;47.550;18.818;2022-07-23T04:55:41;99058.75;;;23.30;74.24
51237;BME280;37312;47.550;18.818;2022-07-23T04:58:07;99053.91;;;23.44;72.96
51237;BME280;37312;47.550;18.818;2022-07-23T05:00:33;99057.00;;;23.60;72.47
51237;BME280;37312;47.550;18.818;2022-07-23T05:02:59;99057.25;;;23.81;70.58
51237;BME280;37312;47.550;18.818;2022-07-23T05:05:25;99051.56;;;24.12;69.96
51237;BME280;37312;47.550;18.818;2022-07-23T05:07:51;99049.16;;;24.84;68.59
51237;BME280;37312;47.550;18.818;2022-07-23T05:10:17;99049.06;;;25.91;63.13
51237;BME280;37312;47.550;18.818;2022-07-23T05:12:43;99060.34;;;26.86;60.81
51237;BME280;37312;47.550;18.818;2022-07-23T05:15:09;99057.97;;;27.21;59.26
51237;BME280;37312;47.550;18.818;2022-07-23T05:17:35;99062.44;;;27.38;61.54
51237;BME280;37312;47.550;18.818;2022-07-23T05:20:01;99051.69;;;27.61;62.99
51237;BME280;37312;47.550;18.818;2022-07-23T05:22:27;99054.31;;;27.94;60.13
51237;BME280;37312;47.550;18.818;2022-07-23T05:24:53;99059.38;;;28.04;56.33
51237;BME280;37312;47.550;18.818;2022-07-23T05:27:19;99064.25;;;27.95;56.06
51237;BME280;37312;47.550;18.818;2022-07-23T05:29:45;99057.66;;;28.00;55.42
51237;BME280;37312;47.550;18.818;2022-07-23T05:32:11;99051.91;;;28.21;55.08
51237;BME280;37312;47.550;18.818;2022-07-23T05:34:37;99053.19;;;28.39;55.86
51237;BME280;37312;47.550;18.818;2022-07-23T05:37:03;99062.28;;;28.52;55.13
51237;BME280;37312;47.550;18.818;2022-07-23T05:39:29;99067.94;;;28.87;54.08
51237;BME280;37312;47.550;18.818;2022-07-23T05:41:55;99070.09;;;29.26;53.00
51237;BME280;37312;47.550;18.818;2022-07-23T05:44:21;99065.53;;;29.49;52.31
51237;BME280;37312;47.550;18.818;2022-07-23T05:46:47;99064.47;;;29.73;52.33
51237;BME280;37312;47.550;18.818;2022-07-23T05:49:13;99069.94;;;30.05;52.51
51237;BME280;37312;47.550;18.818;2022-07-23T05:51:39;99068.22;;;30.59;52.14
51237;BME280;37312;47.550;18.818;2022-07-23T05:54:05;99071.94;;;31.36;51.77
51237;BME280;37312;47.550;18.818;2022-07-23T05:56:31;99058.06;;;32.23;47.57
51237;BME280;37312;47.550;18.818;2022-07-23T05:58:57;99056.94;;;33.06;46.21
51237;BME280;37312;47.550;18.818;2022-07-23T06:01:23;99059.03;;;33.82;45.45
51237;BME280;37312;47.550;18.818;2022-07-23T06:03:49;99066.16;;;34.64;43.39
51237;BME280;37312;47.550;18.818;2022-07-23T06:06:15;99058.19;;;35.27;41.71
51237;BME280;37312;47.550;18.818;2022-07-23T06:08:41;99060.03;;;36.05;37.20
51237;BME280;37312;47.550;18.818;2022-07-23T06:11:07;99051.28;;;36.73;33.58
51237;BME280;37312;47.550;18.818;2022-07-23T06:13:33;99049.84;;;37.86;32.63
51237;BME280;37312;47.550;18.818;2022-07-23T06:15:59;99050.03;;;38.06;31.27
51237;BME280;37312;47.550;18.818;2022-07-23T06:18:25;99054.59;;;38.24;31.22
51237;BME280;37312;47.550;18.818;2022-07-23T06:20:51;99052.69;;;38.48;30.82
51237;BME280;37312;47.550;18.818;2022-07-23T06:23:17;99045.94;;;38.11;30.45
51237;BME280;37312;47.550;18.818;2022-07-23T06:25:43;99038.81;;;37.99;31.53
51237;BME280;37312;47.550;18.818;2022-07-23T06:28:09;99048.87;;;38.04;30.34
51237;BME280;37312;47.550;18.818;2022-07-23T06:30:35;99043.59;;;38.36;29.99
51237;BME280;37312;47.550;18.818;2022-07-23T06:33:01;99051.94;;;38.71;28.98
51237;BME280;37312;47.550;18.818;2022-07-23T06:35:27;99050.06;;;39.15;29.04
51237;BME280;37312;47.550;18.818;2022-07-23T06:37:53;99048.56;;;39.54;26.94
51237;BME280;37312;47.550;18.818;2022-07-23T06:40:19;99049.50;;;40.07;26.98
51237;BME280;37312;47.550;18.818;2022-07-23T06:42:46;99048.34;;;40.61;26.13
51237;BME280;37312;47.550;18.818;2022-07-23T06:45:12;99051.47;;;40.10;25.11
51237;BME280;37312;47.550;18.818;2022-07-23T06:47:38;99056.06;;;40.93;24.96
51237;BME280;37312;47.550;18.818;2022-07-23T06:50:04;99053.66;;;41.08;23.81
51237;BME280;37312;47.550;18.818;2022-07-23T06:52:30;99055.34;;;41.05;24.44
51237;BME280;37312;47.550;18.818;2022-07-23T06:54:56;99053.38;;;41.35;24.59
51237;BME280;37312;47.550;18.818;2022-07-23T06:57:22;99054.06;;;41.56;23.33
51237;BME280;37312;47.550;18.818;2022-07-23T06:59:48;99049.41;;;41.78;21.97
51237;BME280;37312;47.550;18.818;2022-07-23T07:02:14;99050.06;;;41.53;22.77
51237;BME280;37312;47.550;18.818;2022-07-23T07:04:40;99047.97;;;40.42;23.18
51237;BME280;37312;47.550;18.818;2022-07-23T07:07:06;99041.34;;;40.33;24.22
51237;BME280;37312;47.550;18.818;2022-07-23T07:09:32;99035.84;;;40.78;22.62
51237;BME280;37312;47.550;18.818;2022-07-23T07:11:58;99039.56;;;40.92;22.32
51237;BME280;37312;47.550;18.818;2022-07-23T07:14:24;99038.47;;;40.53;22.06
51237;BME280;37312;47.550;18.818;2022-07-23T07:16:50;99024.81;;;39.95;24.15
51237;BME280;37312;47.550;18.818;2022-07-23T07:19:16;99037.47;;;40.43;23.23
51237;BME280;37312;47.550;18.818;2022-07-23T07:21:42;99030.63;;;40.24;23.36
51237;BME280;37312;47.550;18.818;2022-07-23T07:24:08;99035.81;;;40.26;23.17
51237;BME280;37312;47.550;18.818;2022-07-23T07:26:34;99036.59;;;39.46;23.19
51237;BME280;37312;47.550;18.818;2022-07-23T07:29:00;99032.37;;;38.87;23.18
51237;BME280;37312;47.550;18.818;2022-07-23T07:31:26;99034.22;;;38.74;23.35
51237;BME280;37312;47.550;18.818;2022-07-23T07:33:52;99025.59;;;39.55;22.68
51237;BME280;37312;47.550;18.818;2022-07-23T07:36:18;99030.56;;;40.28;21.41
51237;BME280;37312;47.550;18.818;2022-07-23T07:38:44;99037.12;;;41.39;20.85
51237;BME280;37312;47.550;18.818;2022-07-23T07:41:10;99029.56;;;41.03;20.24
51237;BME280;37312;47.550;18.818;2022-07-23T07:43:36;99035.00;;;39.89;22.37
51237;BME280;37312;47.550;18.818;2022-07-23T07:46:03;99033.22;;;40.35;22.79
51237;BME280;37312;47.550;18.818;2022-07-23T07:48:30;99033.19;;;40.88;21.04
51237;BME280;37312;47.550;18.818;2022-07-23T07:50:56;99037.16;;;41.23;21.28
51237;BME280;37312;47.550;18.818;2022-07-23T07:53:21;99031.19;;;42.34;20.23
51237;BME280;37312;47.550;18.818;2022-07-23T07:55:47;99036.22;;;42.43;18.62
51237;BME280;37312;47.550;18.818;2022-07-23T07:58:13;99029.75;;;41.58;20.32
51237;BME280;37312;47.550;18.818;2022-07-23T08:00:39;99032.03;;;41.18;21.67
51237;BME280;37312;47.550;18.818;2022-07-23T08:03:05;99023.19;;;41.91;20.40
51237;BME280;37312;47.550;18.818;2022-07-23T08:05:31;99036.53;;;41.90;19.67
51237;BME280;37312;47.550;18.818;2022-07-23T08:07:58;99030.16;;;42.92;19.22
51237;BME280;37312;47.550;18.818;2022-07-23T08:10:25;99039.16;;;43.82;18.85
51237;BME280;37312;47.550;18.818;2022-07-23T08:12:54;99042.03;;;44.36;17.17
51237;BME280;37312;47.550;18.818;2022-07-23T08:15:22;99039.47;;;44.28;18.02
51237;BME280;37312;47.550;18.818;2022-07-23T08:17:49;99034.91;;;44.71;16.33
51237;BME280;37312;47.550;18.818;2022-07-23T08:20:18;99035.94;;;44.96;16.44
51237;BME280;37312;47.550;18.818;2022-07-23T08:22:54;99038.50;;;44.53;17.22
51237;BME280;37312;47.550;18.818;2022-07-23T08:25:45;99037.12;;;45.35;16.41
51237;BME280;37312;47.550;18.818;2022-07-23T08:28:11;99029.94;;;44.85;16.09
51237;BME280;37312;47.550;18.818;2022-07-23T08:30:39;99042.25;;;45.00;17.13
51237;BME280;37312;47.550;18.818;2022-07-23T08:33:10;99034.75;;;44.75;16.33
51237;BME280;37312;47.550;18.818;2022-07-23T08:35:43;99038.81;;;45.14;16.64
51237;BME280;37312;47.550;18.818;2022-07-23T08:38:14;99042.94;;;45.32;16.75
51237;BME280;37312;47.550;18.818;2022-07-23T08:40:42;99043.38;;;45.95;15.76
51237;BME280;37312;47.550;18.818;2022-07-23T08:43:13;99045.88;;;46.21;15.46
51237;BME280;37312;47.550;18.818;2022-07-23T08:45:41;99043.13;;;46.45;15.45
51237;BME280;37312;47.550;18.818;2022-07-23T08:48:11;99035.38;;;46.78;14.80
51237;BME280;37312;47.550;18.818;2022-07-23T08:50:42;99027.56;;;46.55;14.54
51237;BME280;37312;47.550;18.818;2022-07-23T08:53:09;99029.53;;;46.30;14.67
51237;BME280;37312;47.550;18.818;2022-07-23T08:55:35;99037.53;;;46.08;14.97
51237;BME280;37312;47.550;18.818;2022-07-23T08:58:02;99027.63;;;45.48;15.30
51237;BME280;37312;47.550;18.818;2022-07-23T09:00:28;99021.38;;;44.75;16.27
51237;BME280;37312;47.550;18.818;2022-07-23T09:02:54;99025.87;;;45.23;14.92
51237;BME280;37312;47.550;18.818;2022-07-23T09:05:20;99025.06;;;45.13;15.14
51237;BME280;37312;47.550;18.818;2022-07-23T09:08:15;99018.41;;;44.48;16.76
51237;BME280;37312;47.550;18.818;2022-07-23T09:10:56;99015.06;;;43.87;16.62
51237;BME280;37312;47.550;18.818;2022-07-23T09:16:09;99005.13;;;43.38;16.58
51237;BME280;37312;47.550;18.818;2022-07-23T09:18:43;99011.84;;;43.98;16.27
51237;BME280;37312;47.550;18.818;2022-07-23T09:21:14;99009.78;;;44.20;16.72
51237;BME280;37312;47.550;18.818;2022-07-23T09:29:10;99007.97;;;42.90;17.20
51237;BME280;37312;47.550;18.818;2022-07-23T09:36:42;99001.09;;;42.53;17.31
51237;BME280;37312;47.550;18.818;2022-07-23T09:39:10;99004.84;;;41.82;18.74
51237;BME280;37312;47.550;18.818;2022-07-23T09:41:46;99000.28;;;41.72;19.27
51237;BME280;37312;47.550;18.818;2022-07-23T09:44:15;99001.50;;;42.26;18.77
51237;BME280;37312;47.550;18.818;2022-07-23T09:46:43;98999.69;;;42.19;17.35
51237;BME280;37312;47.550;18.818;2022-07-23T09:49:11;99004.25;;;41.75;19.53
51237;BME280;37312;47.550;18.818;2022-07-23T09:54:25;98997.50;;;41.26;19.25
51237;BME280;37312;47.550;18.818;2022-07-23T09:56:53;98994.09;;;41.19;19.37
51237;BME280;37312;47.550;18.818;2022-07-23T09:59:23;98992.06;;;40.70;19.24
51237;BME280;37312;47.550;18.818;2022-07-23T10:01:52;98991.44;;;40.46;19.49
51237;BME280;37312;47.550;18.818;2022-07-23T10:04:21;98987.22;;;40.18;20.07
51237;BME280;37312;47.550;18.818;2022-07-23T10:06:48;98985.84;;;39.90;19.06
51237;BME280;37312;47.550;18.818;2022-07-23T10:09:23;98987.19;;;39.81;20.13
51237;BME280;37312;47.550;18.818;2022-07-23T10:11:50;98973.69;;;39.53;20.92
51237;BME280;37312;47.550;18.818;2022-07-23T10:14:16;98979.75;;;39.51;22.43
51237;BME280;37312;47.550;18.818;2022-07-23T10:16:43;98981.25;;;39.96;22.92
51237;BME280;37312;47.550;18.818;2022-07-23T10:19:09;98979.97;;;40.53;21.49
51237;BME280;37312;47.550;18.818;2022-07-23T10:21:48;98973.44;;;40.56;19.33
51237;BME280;37312;47.550;18.818;2022-07-23T10:33:38;98964.28;;;40.69;20.16
51237;BME280;37312;47.550;18.818;2022-07-23T10:36:16;98965.28;;;40.26;19.88
51237;BME280;37312;47.550;18.818;2022-07-23T10:41:37;98959.31;;;40.40;19.60
51237;BME280;37312;47.550;18.818;2022-07-23T10:44:16;98962.75;;;40.31;19.71
51237;BME280;37312;47.550;18.818;2022-07-23T10:46:57;98963.56;;;40.48;20.42
51237;BME280;37312;47.550;18.818;2022-07-23T10:49:31;98948.66;;;40.48;19.60
51237;BME280;37312;47.550;18.818;2022-07-23T10:57:28;98942.66;;;39.13;20.92
51237;BME280;37312;47.550;18.818;2022-07-23T11:02:31;98932.97;;;39.14;21.11
51237;BME280;37312;47.550;18.818;2022-07-23T11:05:07;98938.62;;;39.54;20.45
51237;BME280;37312;47.550;18.818;2022-07-23T11:07:34;98930.19;;;39.54;20.35
51237;BME280;37312;47.550;18.818;2022-07-23T11:10:01;98928.16;;;39.54;20.62
51237;BME280;37312;47.550;18.818;2022-07-23T11:15:09;98921.31;;;39.55;21.49
51237;BME280;37312;47.550;18.818;2022-07-23T11:22:47;98912.78;;;39.75;20.77
51237;BME280;37312;47.550;18.818;2022-07-23T11:27:47;98911.03;;;39.45;21.21
51237;BME280;37312;47.550;18.818;2022-07-23T11:30:41;98901.34;;;39.26;21.25
51237;BME280;37312;47.550;18.818;2022-07-23T11:35:34;98907.47;;;39.01;21.39
51237;BME280;37312;47.550;18.818;2022-07-23T11:38:15;98901.03;;;39.00;21.91
51237;BME280;37312;47.550;18.818;2022-07-23T11:40:43;98892.72;;;38.93;20.42
51237;BME280;37312;47.550;18.818;2022-07-23T11:43:10;98891.94;;;39.13;21.67
51237;BME280;37312;47.550;18.818;2022-07-23T11:45:42;98898.53;;;39.06;20.56
51237;BME280;37312;47.550;18.818;2022-07-23T11:48:14;98890.06;;;39.26;19.52
51237;BME280;37312;47.550;18.818;2022-07-23T11:50:41;98867.88;;;39.48;21.41
51237;BME280;37312;47.550;18.818;2022-07-23T11:53:07;98873.31;;;39.59;18.92
51237;BME280;37312;47.550;18.818;2022-07-23T11:55:33;98875.56;;;39.48;20.54
51237;BME280;37312;47.550;18.818;2022-07-23T11:57:59;98869.84;;;39.31;20.07
51237;BME280;37312;47.550;18.818;2022-07-23T12:00:29;98860.53;;;38.94;20.54
51237;BME280;37312;47.550;18.818;2022-07-23T12:02:57;98862.84;;;38.56;20.65
51237;BME280;37312;47.550;18.818;2022-07-23T12:05:30;98856.84;;;38.54;21.01
51237;BME280;37312;47.550;18.818;2022-07-23T12:07:57;98859.19;;;38.32;21.43
51237;BME280;37312;47.550;18.818;2022-07-23T12:10:27;98845.69;;;38.47;22.18
51237;BME280;37312;47.550;18.818;2022-07-23T12:12:58;98861.41;;;38.68;22.88
51237;BME280;37312;47.550;18.818;2022-07-23T12:15:45;98855.50;;;38.82;22.38
51237;BME280;37312;47.550;18.818;2022-07-23T12:18:14;98849.22;;;38.74;21.46
51237;BME280;37312;47.550;18.818;2022-07-23T12:20:47;98844.38;;;38.75;21.67
51237;BME280;37312;47.550;18.818;2022-07-23T12:23:15;98846.78;;;38.53;21.10
51237;BME280;37312;47.550;18.818;2022-07-23T12:25:43;98842.56;;;38.41;21.13
51237;BME280;37312;47.550;18.818;2022-07-23T12:28:34;98837.84;;;38.34;22.10
51237;BME280;37312;47.550;18.818;2022-07-23T12:31:03;98835.69;;;37.95;23.42
51237;BME280;37312;47.550;18.818;2022-07-23T12:33:38;98827.94;;;38.03;23.18
51237;BME280;37312;47.550;18.818;2022-07-23T12:36:08;98829.09;;;38.05;22.27
51237;BME280;37312;47.550;18.818;2022-07-23T12:38:49;98820.63;;;37.82;24.61
51237;BME280;37312;47.550;18.818;2022-07-23T12:41:15;98817.22;;;37.67;23.78
51237;BME280;37312;47.550;18.818;2022-07-23T12:43:44;98804.47;;;37.31;24.21
51237;BME280;37312;47.550;18.818;2022-07-23T12:46:15;98804.63;;;37.17;25.54
51237;BME280;37312;47.550;18.818;2022-07-23T12:51:18;98807.47;;;37.75;23.74
51237;BME280;37312;47.550;18.818;2022-07-23T12:53:50;98813.19;;;37.95;22.96
51237;BME280;37312;47.550;18.818;2022-07-23T12:56:22;98813.19;;;37.95;23.89
51237;BME280;37312;47.550;18.818;2022-07-23T12:59:06;98812.06;;;37.89;23.20
51237;BME280;37312;47.550;18.818;2022-07-23T13:01:35;98815.75;;;37.86;23.90
51237;BME280;37312;47.550;18.818;2022-07-23T13:04:22;98809.88;;;38.00;25.21
51237;BME280;37312;47.550;18.818;2022-07-23T13:06:51;98807.69;;;38.35;23.52
51237;BME280;37312;47.550;18.818;2022-07-23T13:09:20;98806.56;;;38.76;22.86
51237;BME280;37312;47.550;18.818;2022-07-23T13:11:48;98799.38;;;39.15;21.76
51237;BME280;37312;47.550;18.818;2022-07-23T13:14:15;98800.88;;;39.39;21.88
51237;BME280;37312;47.550;18.818;2022-07-23T13:16:42;98798.41;;;39.41;20.98
51237;BME280;37312;47.550;18.818;2022-07-23T13:19:09;98785.78;;;39.10;21.03
51237;BME280;37312;47.550;18.818;2022-07-23T13:21:35;98781.31;;;38.72;21.37
51237;BME280;37312;47.550;18.818;2022-07-23T13:24:01;98785.22;;;38.11;23.25
51237;BME280;37312;47.550;18.818;2022-07-23T13:26:27;98782.00;;;38.13;23.18
51237;BME280;37312;47.550;18.818;2022-07-23T13:28:53;98781.16;;;38.36;22.67
51237;BME280;37312;47.550;18.818;2022-07-23T13:31:20;98780.66;;;38.41;22.33
51237;BME280;37312;47.550;18.818;2022-07-23T13:33:46;98775.34;;;38.47;23.31
51237;BME280;37312;47.550;18.818;2022-07-23T13:36:12;98766.78;;;38.30;22.19
51237;BME280;37312;47.550;18.818;2022-07-23T13:38:38;98764.78;;;38.31;22.86
51237;BME280;37312;47.550;18.818;2022-07-23T13:41:05;98762.09;;;38.24;23.44
51237;BME280;37312;47.550;18.818;2022-07-23T13:43:31;98763.19;;;38.30;22.29